Colchester, Washington
Current Conditions -  °F | °C
As of 4:15 PM on Thursday 27 Nov 2014 (Local Time) from KPWT Reporting Station
Overcast Overcast  
Wind Chill: 54°   Ceiling: 500
Heat Index: 54°   Visibility: 5mi
Dew Point: 54°   Wind: 17mph
Humidity: 100%   Direction: 180°S
Pressure: 29.79"   Gusts: 28mph
Location:  47.5378°N, 122.589°W
Report Text: KPWT 280015Z AUTO 18015G24KT 5SM OVC005 12/12 A2979 RMK AO1 P0001
Loading
Personal Weather Stations






























Interactive Weather Map New forecast layout! Learn more

10-Day Weather Forecast

Advertisements
Track Severe Weather on mobile